sensor_id;sensor_type;location;lat;lon;timestamp;P1;durP1;ratioP1;P2;durP2;ratioP2
21138;SDS011;10727;43.600;1.444;2023-05-10T00:00:57;11.50;;;2.90;;
21138;SDS011;10727;43.600;1.444;2023-05-10T00:04:02;14.20;;;3.20;;
21138;SDS011;10727;43.600;1.444;2023-05-10T00:07:08;13.63;;;3.20;;
21138;SDS011;10727;43.600;1.444;2023-05-10T00:10:13;12.50;;;3.17;;
21138;SDS011;10727;43.600;1.444;2023-05-10T00:13:18;13.20;;;3.05;;
21138;SDS011;10727;43.600;1.444;2023-05-10T00:16:25;14.38;;;3.20;;
21138;SDS011;10727;43.600;1.444;2023-05-10T00:19:30;10.88;;;2.80;;
21138;SDS011;10727;43.600;1.444;2023-05-10T00:22:35;15.18;;;3.72;;
21138;SDS011;10727;43.600;1.444;2023-05-10T00:25:41;12.25;;;2.88;;
21138;SDS011;10727;43.600;1.444;2023-05-10T00:28:45;14.65;;;3.35;;
21138;SDS011;10727;43.600;1.444;2023-05-10T00:31:52;14.15;;;3.20;;
21138;SDS011;10727;43.600;1.444;2023-05-10T00:34:57;11.15;;;3.05;;
21138;SDS011;10727;43.600;1.444;2023-05-10T00:38:03;9.48;;;3.15;;
21138;SDS011;10727;43.600;1.444;2023-05-10T00:41:09;17.45;;;3.33;;
21138;SDS011;10727;43.600;1.444;2023-05-10T00:44:16;13.88;;;3.20;;
21138;SDS011;10727;43.600;1.444;2023-05-10T00:47:22;12.85;;;3.25;;
21138;SDS011;10727;43.600;1.444;2023-05-10T00:50:28;15.50;;;3.28;;
21138;SDS011;10727;43.600;1.444;2023-05-10T00:53:33;17.60;;;3.38;;
21138;SDS011;10727;43.600;1.444;2023-05-10T00:56:39;15.00;;;3.30;;
21138;SDS011;10727;43.600;1.444;2023-05-10T00:59:44;13.27;;;3.17;;
21138;SDS011;10727;43.600;1.444;2023-05-10T01:02:52;16.63;;;2.85;;
21138;SDS011;10727;43.600;1.444;2023-05-10T01:05:58;15.38;;;2.75;;
21138;SDS011;10727;43.600;1.444;2023-05-10T01:09:04;10.75;;;3.00;;
21138;SDS011;10727;43.600;1.444;2023-05-10T01:12:09;14.88;;;3.13;;
21138;SDS011;10727;43.600;1.444;2023-05-10T01:15:14;17.50;;;3.22;;
21138;SDS011;10727;43.600;1.444;2023-05-10T01:18:23;18.35;;;3.10;;
21138;SDS011;10727;43.600;1.444;2023-05-10T01:21:31;15.18;;;3.15;;
21138;SDS011;10727;43.600;1.444;2023-05-10T01:24:51;12.88;;;3.05;;
21138;SDS011;10727;43.600;1.444;2023-05-10T01:31:22;13.43;;;2.85;;
21138;SDS011;10727;43.600;1.444;2023-05-10T01:34:33;13.95;;;3.17;;
21138;SDS011;10727;43.600;1.444;2023-05-10T01:37:41;12.93;;;2.85;;
21138;SDS011;10727;43.600;1.444;2023-05-10T01:40:48;16.55;;;3.00;;
21138;SDS011;10727;43.600;1.444;2023-05-10T01:44:00;14.60;;;3.15;;
21138;SDS011;10727;43.600;1.444;2023-05-10T01:47:07;17.90;;;3.53;;
21138;SDS011;10727;43.600;1.444;2023-05-10T01:50:17;14.25;;;2.78;;
21138;SDS011;10727;43.600;1.444;2023-05-10T01:53:22;15.93;;;2.83;;
21138;SDS011;10727;43.600;1.444;2023-05-10T01:56:29;16.10;;;2.83;;
21138;SDS011;10727;43.600;1.444;2023-05-10T01:59:36;13.90;;;2.80;;
21138;SDS011;10727;43.600;1.444;2023-05-10T02:02:44;16.60;;;3.10;;
21138;SDS011;10727;43.600;1.444;2023-05-10T02:05:52;13.20;;;2.90;;
21138;SDS011;10727;43.600;1.444;2023-05-10T02:08:58;13.30;;;2.50;;
21138;SDS011;10727;43.600;1.444;2023-05-10T02:12:07;13.18;;;2.90;;
21138;SDS011;10727;43.600;1.444;2023-05-10T02:15:13;12.85;;;2.92;;
21138;SDS011;10727;43.600;1.444;2023-05-10T02:18:21;14.88;;;3.58;;
21138;SDS011;10727;43.600;1.444;2023-05-10T02:21:28;10.98;;;3.05;;
21138;SDS011;10727;43.600;1.444;2023-05-10T02:24:35;14.45;;;2.97;;
21138;SDS011;10727;43.600;1.444;2023-05-10T02:27:41;15.48;;;3.25;;
21138;SDS011;10727;43.600;1.444;2023-05-10T02:30:46;16.10;;;3.22;;
21138;SDS011;10727;43.600;1.444;2023-05-10T02:33:53;15.25;;;3.15;;
21138;SDS011;10727;43.600;1.444;2023-05-10T02:37:00;16.02;;;3.22;;
21138;SDS011;10727;43.600;1.444;2023-05-10T02:40:06;12.77;;;3.17;;
21138;SDS011;10727;43.600;1.444;2023-05-10T02:43:13;12.48;;;2.92;;
21138;SDS011;10727;43.600;1.444;2023-05-10T02:46:19;13.57;;;2.80;;
21138;SDS011;10727;43.600;1.444;2023-05-10T02:49:24;16.02;;;3.00;;
21138;SDS011;10727;43.600;1.444;2023-05-10T02:52:39;15.27;;;2.92;;
21138;SDS011;10727;43.600;1.444;2023-05-10T02:55:46;14.18;;;2.97;;
21138;SDS011;10727;43.600;1.444;2023-05-10T02:58:54;15.82;;;2.60;;
21138;SDS011;10727;43.600;1.444;2023-05-10T03:02:00;13.65;;;2.95;;
21138;SDS011;10727;43.600;1.444;2023-05-10T03:05:05;15.02;;;3.50;;
21138;SDS011;10727;43.600;1.444;2023-05-10T03:08:12;19.85;;;3.97;;
21138;SDS011;10727;43.600;1.444;2023-05-10T03:11:28;19.77;;;3.47;;
21138;SDS011;10727;43.600;1.444;2023-05-10T03:14:42;14.15;;;3.58;;
21138;SDS011;10727;43.600;1.444;2023-05-10T03:17:52;9.10;;;2.20;;
21138;SDS011;10727;43.600;1.444;2023-05-10T03:21:01;10.45;;;2.53;;
21138;SDS011;10727;43.600;1.444;2023-05-10T03:24:09;11.80;;;2.15;;
21138;SDS011;10727;43.600;1.444;2023-05-10T03:27:15;10.65;;;2.22;;
21138;SDS011;10727;43.600;1.444;2023-05-10T03:30:21;9.18;;;2.17;;
21138;SDS011;10727;43.600;1.444;2023-05-10T03:33:27;8.10;;;2.50;;
21138;SDS011;10727;43.600;1.444;2023-05-10T03:36:32;9.60;;;2.30;;
21138;SDS011;10727;43.600;1.444;2023-05-10T03:39:39;13.98;;;2.30;;
21138;SDS011;10727;43.600;1.444;2023-05-10T03:42:46;8.82;;;2.38;;
21138;SDS011;10727;43.600;1.444;2023-05-10T03:45:51;9.90;;;2.13;;
21138;SDS011;10727;43.600;1.444;2023-05-10T03:48:56;8.65;;;2.25;;
21138;SDS011;10727;43.600;1.444;2023-05-10T03:52:01;9.95;;;2.25;;
21138;SDS011;10727;43.600;1.444;2023-05-10T03:55:09;10.75;;;2.58;;
21138;SDS011;10727;43.600;1.444;2023-05-10T03:58:14;9.82;;;2.22;;
21138;SDS011;10727;43.600;1.444;2023-05-10T04:01:20;8.70;;;2.05;;
21138;SDS011;10727;43.600;1.444;2023-05-10T04:04:25;8.82;;;1.80;;
21138;SDS011;10727;43.600;1.444;2023-05-10T04:07:30;11.25;;;1.95;;
21138;SDS011;10727;43.600;1.444;2023-05-10T04:10:37;10.45;;;2.20;;
21138;SDS011;10727;43.600;1.444;2023-05-10T04:13:42;9.85;;;2.53;;
21138;SDS011;10727;43.600;1.444;2023-05-10T04:16:47;10.73;;;2.42;;
21138;SDS011;10727;43.600;1.444;2023-05-10T04:19:53;11.77;;;2.75;;
21138;SDS011;10727;43.600;1.444;2023-05-10T04:22:58;13.82;;;2.40;;
21138;SDS011;10727;43.600;1.444;2023-05-10T04:26:05;11.02;;;2.40;;
21138;SDS011;10727;43.600;1.444;2023-05-10T04:29:10;13.18;;;2.67;;
21138;SDS011;10727;43.600;1.444;2023-05-10T04:32:15;9.82;;;2.38;;
21138;SDS011;10727;43.600;1.444;2023-05-10T04:35:20;13.50;;;2.30;;
21138;SDS011;10727;43.600;1.444;2023-05-10T04:38:25;14.38;;;2.45;;
21138;SDS011;10727;43.600;1.444;2023-05-10T04:41:32;13.75;;;3.00;;
21138;SDS011;10727;43.600;1.444;2023-05-10T04:44:37;8.25;;;2.38;;
21138;SDS011;10727;43.600;1.444;2023-05-10T04:47:42;10.30;;;2.13;;
21138;SDS011;10727;43.600;1.444;2023-05-10T04:50:47;12.02;;;2.45;;
21138;SDS011;10727;43.600;1.444;2023-05-10T04:53:52;14.90;;;2.55;;
21138;SDS011;10727;43.600;1.444;2023-05-10T04:56:58;10.27;;;2.65;;
21138;SDS011;10727;43.600;1.444;2023-05-10T05:00:04;12.75;;;2.38;;
21138;SDS011;10727;43.600;1.444;2023-05-10T05:03:09;10.88;;;2.70;;
21138;SDS011;10727;43.600;1.444;2023-05-10T05:06:14;15.40;;;3.00;;
21138;SDS011;10727;43.600;1.444;2023-05-10T05:09:19;13.88;;;2.60;;
21138;SDS011;10727;43.600;1.444;2023-05-10T05:12:26;14.38;;;2.60;;
21138;SDS011;10727;43.600;1.444;2023-05-10T05:15:31;11.88;;;2.60;;
21138;SDS011;10727;43.600;1.444;2023-05-10T05:18:36;10.70;;;2.80;;
21138;SDS011;10727;43.600;1.444;2023-05-10T05:21:41;12.18;;;2.67;;
21138;SDS011;10727;43.600;1.444;2023-05-10T05:24:46;12.43;;;2.72;;
21138;SDS011;10727;43.600;1.444;2023-05-10T05:27:53;13.38;;;3.03;;
21138;SDS011;10727;43.600;1.444;2023-05-10T05:30:58;14.10;;;3.15;;
21138;SDS011;10727;43.600;1.444;2023-05-10T05:34:05;13.93;;;3.50;;
21138;SDS011;10727;43.600;1.444;2023-05-10T05:37:12;11.23;;;2.65;;
21138;SDS011;10727;43.600;1.444;2023-05-10T05:40:18;13.45;;;2.80;;
21138;SDS011;10727;43.600;1.444;2023-05-10T05:43:25;12.80;;;3.00;;
21138;SDS011;10727;43.600;1.444;2023-05-10T05:46:30;13.88;;;2.85;;
21138;SDS011;10727;43.600;1.444;2023-05-10T05:49:35;13.50;;;2.65;;
21138;SDS011;10727;43.600;1.444;2023-05-10T05:52:40;11.07;;;3.03;;
21138;SDS011;10727;43.600;1.444;2023-05-10T05:55:50;11.65;;;2.67;;
21138;SDS011;10727;43.600;1.444;2023-05-10T05:58:58;18.02;;;2.97;;
21138;SDS011;10727;43.600;1.444;2023-05-10T06:02:03;13.20;;;2.90;;
21138;SDS011;10727;43.600;1.444;2023-05-10T06:05:08;19.50;;;2.97;;
21138;SDS011;10727;43.600;1.444;2023-05-10T06:08:13;17.85;;;3.05;;
21138;SDS011;10727;43.600;1.444;2023-05-10T06:11:19;17.42;;;3.53;;
21138;SDS011;10727;43.600;1.444;2023-05-10T06:14:25;17.80;;;3.58;;
21138;SDS011;10727;43.600;1.444;2023-05-10T06:17:30;13.57;;;2.88;;
21138;SDS011;10727;43.600;1.444;2023-05-10T06:20:36;15.63;;;3.58;;
21138;SDS011;10727;43.600;1.444;2023-05-10T06:23:41;12.93;;;2.95;;
21138;SDS011;10727;43.600;1.444;2023-05-10T06:26:46;16.25;;;3.50;;
21138;SDS011;10727;43.600;1.444;2023-05-10T06:29:54;17.92;;;3.50;;
21138;SDS011;10727;43.600;1.444;2023-05-10T06:32:59;11.68;;;3.35;;
21138;SDS011;10727;43.600;1.444;2023-05-10T06:36:04;18.58;;;3.15;;
21138;SDS011;10727;43.600;1.444;2023-05-10T06:39:09;15.63;;;3.15;;
21138;SDS011;10727;43.600;1.444;2023-05-10T06:42:15;19.08;;;3.40;;
21138;SDS011;10727;43.600;1.444;2023-05-10T06:45:24;14.30;;;3.28;;
21138;SDS011;10727;43.600;1.444;2023-05-10T06:48:29;15.05;;;2.75;;
21138;SDS011;10727;43.600;1.444;2023-05-10T06:51:34;17.73;;;3.45;;
21138;SDS011;10727;43.600;1.444;2023-05-10T06:54:39;15.80;;;3.15;;
21138;SDS011;10727;43.600;1.444;2023-05-10T06:57:44;20.67;;;3.00;;
21138;SDS011;10727;43.600;1.444;2023-05-10T07:00:52;18.65;;;3.58;;
21138;SDS011;10727;43.600;1.444;2023-05-10T07:03:57;16.50;;;3.65;;
21138;SDS011;10727;43.600;1.444;2023-05-10T07:07:02;24.63;;;9.10;;
21138;SDS011;10727;43.600;1.444;2023-05-10T07:10:07;14.73;;;3.30;;
21138;SDS011;10727;43.600;1.444;2023-05-10T07:13:12;10.93;;;2.85;;
21138;SDS011;10727;43.600;1.444;2023-05-10T07:16:19;12.63;;;2.72;;
21138;SDS011;10727;43.600;1.444;2023-05-10T07:19:24;14.07;;;3.00;;
21138;SDS011;10727;43.600;1.444;2023-05-10T07:22:29;19.33;;;3.38;;
21138;SDS011;10727;43.600;1.444;2023-05-10T07:25:34;10.32;;;2.97;;
21138;SDS011;10727;43.600;1.444;2023-05-10T07:28:40;12.35;;;2.50;;
21138;SDS011;10727;43.600;1.444;2023-05-10T07:31:47;16.02;;;2.90;;
21138;SDS011;10727;43.600;1.444;2023-05-10T07:34:52;11.63;;;2.65;;
21138;SDS011;10727;43.600;1.444;2023-05-10T07:37:57;16.35;;;2.92;;
21138;SDS011;10727;43.600;1.444;2023-05-10T07:41:02;15.00;;;3.03;;
21138;SDS011;10727;43.600;1.444;2023-05-10T07:44:07;15.40;;;2.75;;
21138;SDS011;10727;43.600;1.444;2023-05-10T07:47:14;14.75;;;3.40;;
21138;SDS011;10727;43.600;1.444;2023-05-10T07:50:19;14.63;;;2.85;;
21138;SDS011;10727;43.600;1.444;2023-05-10T07:53:25;17.02;;;3.33;;
21138;SDS011;10727;43.600;1.444;2023-05-10T07:56:31;13.27;;;2.60;;
21138;SDS011;10727;43.600;1.444;2023-05-10T07:59:37;11.73;;;3.33;;
21138;SDS011;10727;43.600;1.444;2023-05-10T08:02:43;15.18;;;3.38;;
21138;SDS011;10727;43.600;1.444;2023-05-10T08:05:48;17.50;;;2.97;;
21138;SDS011;10727;43.600;1.444;2023-05-10T08:08:54;9.90;;;2.67;;
21138;SDS011;10727;43.600;1.444;2023-05-10T08:11:59;21.88;;;3.00;;
21138;SDS011;10727;43.600;1.444;2023-05-10T08:15:04;18.65;;;3.22;;
21138;SDS011;10727;43.600;1.444;2023-05-10T08:18:11;17.50;;;2.50;;
21138;SDS011;10727;43.600;1.444;2023-05-10T08:21:16;14.77;;;2.40;;
21138;SDS011;10727;43.600;1.444;2023-05-10T08:24:21;18.58;;;4.10;;
21138;SDS011;10727;43.600;1.444;2023-05-10T08:27:26;18.08;;;4.03;;
21138;SDS011;10727;43.600;1.444;2023-05-10T08:30:31;24.52;;;5.65;;
21138;SDS011;10727;43.600;1.444;2023-05-10T08:33:37;20.98;;;3.97;;
21138;SDS011;10727;43.600;1.444;2023-05-10T08:36:43;11.10;;;2.78;;
21138;SDS011;10727;43.600;1.444;2023-05-10T08:39:48;14.77;;;2.78;;
21138;SDS011;10727;43.600;1.444;2023-05-10T08:42:55;16.17;;;2.80;;
21138;SDS011;10727;43.600;1.444;2023-05-10T08:46:02;15.52;;;2.80;;
21138;SDS011;10727;43.600;1.444;2023-05-10T08:49:11;15.95;;;2.70;;
21138;SDS011;10727;43.600;1.444;2023-05-10T08:52:18;14.50;;;2.92;;
21138;SDS011;10727;43.600;1.444;2023-05-10T08:55:23;10.25;;;2.45;;
21138;SDS011;10727;43.600;1.444;2023-05-10T08:58:28;14.15;;;2.72;;
21138;SDS011;10727;43.600;1.444;2023-05-10T09:01:34;11.43;;;2.67;;
21138;SDS011;10727;43.600;1.444;2023-05-10T09:04:41;12.38;;;2.55;;
21138;SDS011;10727;43.600;1.444;2023-05-10T09:07:47;13.13;;;2.45;;
21138;SDS011;10727;43.600;1.444;2023-05-10T09:10:52;13.40;;;2.58;;
21138;SDS011;10727;43.600;1.444;2023-05-10T09:13:58;14.27;;;1.98;;
21138;SDS011;10727;43.600;1.444;2023-05-10T09:17:03;13.20;;;2.30;;
21138;SDS011;10727;43.600;1.444;2023-05-10T09:20:10;14.98;;;3.00;;
21138;SDS011;10727;43.600;1.444;2023-05-10T09:23:15;11.98;;;2.38;;
21138;SDS011;10727;43.600;1.444;2023-05-10T09:26:24;11.85;;;2.40;;
21138;SDS011;10727;43.600;1.444;2023-05-10T09:29:38;8.15;;;2.20;;
21138;SDS011;10727;43.600;1.444;2023-05-10T09:32:44;9.20;;;2.10;;
21138;SDS011;10727;43.600;1.444;2023-05-10T09:35:50;11.50;;;2.30;;
21138;SDS011;10727;43.600;1.444;2023-05-10T09:38:57;10.45;;;2.20;;
21138;SDS011;10727;43.600;1.444;2023-05-10T09:42:03;8.20;;;2.28;;
21138;SDS011;10727;43.600;1.444;2023-05-10T09:45:08;12.13;;;2.38;;
21138;SDS011;10727;43.600;1.444;2023-05-10T09:48:13;12.02;;;2.40;;
21138;SDS011;10727;43.600;1.444;2023-05-10T09:51:20;11.48;;;2.60;;
21138;SDS011;10727;43.600;1.444;2023-05-10T09:54:25;11.15;;;2.85;;
21138;SDS011;10727;43.600;1.444;2023-05-10T09:57:30;9.15;;;2.45;;
21138;SDS011;10727;43.600;1.444;2023-05-10T10:00:36;15.13;;;2.63;;
21138;SDS011;10727;43.600;1.444;2023-05-10T10:03:41;11.35;;;2.53;;
21138;SDS011;10727;43.600;1.444;2023-05-10T10:06:48;10.13;;;2.33;;
21138;SDS011;10727;43.600;1.444;2023-05-10T10:10:02;10.55;;;2.10;;
21138;SDS011;10727;43.600;1.444;2023-05-10T10:13:08;12.05;;;3.05;;
21138;SDS011;10727;43.600;1.444;2023-05-10T10:16:13;12.07;;;2.80;;
21138;SDS011;10727;43.600;1.444;2023-05-10T10:19:18;10.90;;;2.60;;
21138;SDS011;10727;43.600;1.444;2023-05-10T10:22:25;11.18;;;2.63;;
21138;SDS011;10727;43.600;1.444;2023-05-10T10:25:30;10.00;;;2.13;;
21138;SDS011;10727;43.600;1.444;2023-05-10T10:28:38;9.13;;;2.53;;
21138;SDS011;10727;43.600;1.444;2023-05-10T10:31:46;10.13;;;2.22;;
21138;SDS011;10727;43.600;1.444;2023-05-10T10:34:53;11.55;;;2.90;;
21138;SDS011;10727;43.600;1.444;2023-05-10T10:38:01;11.68;;;4.28;;
21138;SDS011;10727;43.600;1.444;2023-05-10T10:41:10;10.70;;;3.30;;
21138;SDS011;10727;43.600;1.444;2023-05-10T10:44:25;10.05;;;2.83;;
21138;SDS011;10727;43.600;1.444;2023-05-10T10:47:30;5.53;;;2.28;;
21138;SDS011;10727;43.600;1.444;2023-05-10T10:50:43;7.20;;;2.38;;
21138;SDS011;10727;43.600;1.444;2023-05-10T10:53:50;6.93;;;1.98;;
21138;SDS011;10727;43.600;1.444;2023-05-10T10:57:10;10.98;;;2.10;;
21138;SDS011;10727;43.600;1.444;2023-05-10T11:00:23;9.93;;;2.10;;
21138;SDS011;10727;43.600;1.444;2023-05-10T11:03:28;12.70;;;2.60;;
21138;SDS011;10727;43.600;1.444;2023-05-10T11:06:34;9.27;;;2.22;;
21138;SDS011;10727;43.600;1.444;2023-05-10T11:09:41;8.52;;;2.20;;
21138;SDS011;10727;43.600;1.444;2023-05-10T11:12:53;8.40;;;2.17;;
21138;SDS011;10727;43.600;1.444;2023-05-10T11:15:58;6.43;;;2.08;;
21138;SDS011;10727;43.600;1.444;2023-05-10T11:19:04;9.15;;;2.58;;
21138;SDS011;10727;43.600;1.444;2023-05-10T11:22:13;10.20;;;2.70;;
21138;SDS011;10727;43.600;1.444;2023-05-10T11:25:23;11.10;;;2.42;;
21138;SDS011;10727;43.600;1.444;2023-05-10T11:28:31;9.27;;;2.63;;
21138;SDS011;10727;43.600;1.444;2023-05-10T11:31:41;16.52;;;2.80;;
21138;SDS011;10727;43.600;1.444;2023-05-10T11:34:48;9.45;;;2.17;;
21138;SDS011;10727;43.600;1.444;2023-05-10T11:37:53;7.60;;;2.30;;
21138;SDS011;10727;43.600;1.444;2023-05-10T11:41:00;11.43;;;2.10;;
21138;SDS011;10727;43.600;1.444;2023-05-10T11:44:05;9.20;;;2.28;;
21138;SDS011;10727;43.600;1.444;2023-05-10T11:47:10;7.75;;;2.10;;
21138;SDS011;10727;43.600;1.444;2023-05-10T11:50:16;8.57;;;1.60;;
21138;SDS011;10727;43.600;1.444;2023-05-10T11:53:22;6.93;;;1.85;;
21138;SDS011;10727;43.600;1.444;2023-05-10T11:56:28;8.07;;;1.80;;
21138;SDS011;10727;43.600;1.444;2023-05-10T11:59:33;6.82;;;1.40;;
21138;SDS011;10727;43.600;1.444;2023-05-10T12:02:40;7.35;;;1.75;;
21138;SDS011;10727;43.600;1.444;2023-05-10T12:05:45;8.50;;;1.70;;
21138;SDS011;10727;43.600;1.444;2023-05-10T12:08:51;5.68;;;1.85;;
21138;SDS011;10727;43.600;1.444;2023-05-10T12:12:01;5.18;;;1.58;;
21138;SDS011;10727;43.600;1.444;2023-05-10T12:15:10;5.63;;;1.50;;
21138;SDS011;10727;43.600;1.444;2023-05-10T12:18:23;4.97;;;1.33;;
21138;SDS011;10727;43.600;1.444;2023-05-10T12:21:29;3.17;;;1.40;;
21138;SDS011;10727;43.600;1.444;2023-05-10T12:24:34;9.05;;;1.83;;
21138;SDS011;10727;43.600;1.444;2023-05-10T12:27:42;6.72;;;1.55;;
21138;SDS011;10727;43.600;1.444;2023-05-10T12:30:52;4.97;;;1.20;;
21138;SDS011;10727;43.600;1.444;2023-05-10T12:34:00;6.70;;;1.85;;
21138;SDS011;10727;43.600;1.444;2023-05-10T12:37:05;7.28;;;1.73;;
21138;SDS011;10727;43.600;1.444;2023-05-10T12:40:11;10.77;;;3.97;;
21138;SDS011;10727;43.600;1.444;2023-05-10T12:43:19;10.25;;;2.67;;
21138;SDS011;10727;43.600;1.444;2023-05-10T12:46:24;9.77;;;3.25;;
21138;SDS011;10727;43.600;1.444;2023-05-10T12:49:31;7.07;;;2.53;;
21138;SDS011;10727;43.600;1.444;2023-05-10T12:52:37;8.27;;;2.47;;
21138;SDS011;10727;43.600;1.444;2023-05-10T12:55:42;5.45;;;2.00;;
21138;SDS011;10727;43.600;1.444;2023-05-10T12:58:49;5.95;;;1.75;;
21138;SDS011;10727;43.600;1.444;2023-05-10T13:01:55;5.97;;;1.30;;
21138;SDS011;10727;43.600;1.444;2023-05-10T13:05:01;5.95;;;1.50;;
21138;SDS011;10727;43.600;1.444;2023-05-10T13:08:08;9.50;;;1.58;;
21138;SDS011;10727;43.600;1.444;2023-05-10T13:11:14;6.75;;;1.33;;
21138;SDS011;10727;43.600;1.444;2023-05-10T13:14:21;2.83;;;1.20;;
21138;SDS011;10727;43.600;1.444;2023-05-10T13:17:26;7.63;;;1.38;;
21138;SDS011;10727;43.600;1.444;2023-05-10T13:20:34;2.85;;;1.20;;
21138;SDS011;10727;43.600;1.444;2023-05-10T13:23:39;4.78;;;1.27;;
21138;SDS011;10727;43.600;1.444;2023-05-10T13:26:44;3.97;;;1.55;;
21138;SDS011;10727;43.600;1.444;2023-05-10T13:29:51;2.90;;;1.17;;
21138;SDS011;10727;43.600;1.444;2023-05-10T13:32:58;4.05;;;1.33;;
21138;SDS011;10727;43.600;1.444;2023-05-10T13:36:03;7.43;;;1.35;;
21138;SDS011;10727;43.600;1.444;2023-05-10T13:39:08;5.85;;;1.20;;
21138;SDS011;10727;43.600;1.444;2023-05-10T13:42:13;6.40;;;1.50;;
21138;SDS011;10727;43.600;1.444;2023-05-10T13:45:19;3.83;;;1.52;;
21138;SDS011;10727;43.600;1.444;2023-05-10T13:48:25;7.32;;;1.40;;
21138;SDS011;10727;43.600;1.444;2023-05-10T13:51:30;5.40;;;1.40;;
21138;SDS011;10727;43.600;1.444;2023-05-10T13:54:35;4.88;;;1.20;;
21138;SDS011;10727;43.600;1.444;2023-05-10T13:57:41;11.32;;;2.03;;
21138;SDS011;10727;43.600;1.444;2023-05-10T14:00:49;17.35;;;2.78;;
21138;SDS011;10727;43.600;1.444;2023-05-10T14:03:54;10.38;;;1.50;;
21138;SDS011;10727;43.600;1.444;2023-05-10T14:06:59;6.25;;;1.48;;
21138;SDS011;10727;43.600;1.444;2023-05-10T14:10:08;5.70;;;1.42;;
21138;SDS011;10727;43.600;1.444;2023-05-10T14:13:13;6.45;;;1.63;;
21138;SDS011;10727;43.600;1.444;2023-05-10T14:16:19;10.45;;;3.83;;
21138;SDS011;10727;43.600;1.444;2023-05-10T14:19:24;6.53;;;1.90;;
21138;SDS011;10727;43.600;1.444;2023-05-10T14:22:30;6.28;;;1.70;;
21138;SDS011;10727;43.600;1.444;2023-05-10T14:25:36;10.60;;;2.20;;
21138;SDS011;10727;43.600;1.444;2023-05-10T14:28:41;7.35;;;2.20;;
21138;SDS011;10727;43.600;1.444;2023-05-10T14:31:48;8.32;;;2.40;;
21138;SDS011;10727;43.600;1.444;2023-05-10T14:34:53;9.63;;;1.60;;
21138;SDS011;10727;43.600;1.444;2023-05-10T14:37:58;7.20;;;1.67;;
21138;SDS011;10727;43.600;1.444;2023-05-10T14:41:08;7.22;;;1.80;;
21138;SDS011;10727;43.600;1.444;2023-05-10T14:44:16;5.60;;;1.70;;
21138;SDS011;10727;43.600;1.444;2023-05-10T14:47:23;5.72;;;1.73;;
21138;SDS011;10727;43.600;1.444;2023-05-10T14:50:28;6.32;;;1.60;;
21138;SDS011;10727;43.600;1.444;2023-05-10T14:53:33;8.43;;;1.65;;
21138;SDS011;10727;43.600;1.444;2023-05-10T14:56:37;4.38;;;1.23;;
21138;SDS011;10727;43.600;1.444;2023-05-10T14:59:44;5.32;;;1.52;;
21138;SDS011;10727;43.600;1.444;2023-05-10T15:02:51;6.50;;;1.40;;
21138;SDS011;10727;43.600;1.444;2023-05-10T15:05:56;4.40;;;1.15;;
21138;SDS011;10727;43.600;1.444;2023-05-10T15:09:01;8.23;;;1.52;;
21138;SDS011;10727;43.600;1.444;2023-05-10T15:12:07;6.57;;;1.30;;
21138;SDS011;10727;43.600;1.444;2023-05-10T15:15:12;6.47;;;1.25;;
21138;SDS011;10727;43.600;1.444;2023-05-10T15:18:18;6.18;;;1.52;;
21138;SDS011;10727;43.600;1.444;2023-05-10T15:21:26;5.68;;;1.33;;
21138;SDS011;10727;43.600;1.444;2023-05-10T15:24:32;4.97;;;1.58;;
21138;SDS011;10727;43.600;1.444;2023-05-10T15:27:37;6.95;;;1.50;;
21138;SDS011;10727;43.600;1.444;2023-05-10T15:30:43;8.07;;;1.85;;
21138;SDS011;10727;43.600;1.444;2023-05-10T15:33:50;7.90;;;2.00;;
21138;SDS011;10727;43.600;1.444;2023-05-10T15:36:59;9.80;;;1.65;;
21138;SDS011;10727;43.600;1.444;2023-05-10T15:40:05;6.82;;;1.65;;
21138;SDS011;10727;43.600;1.444;2023-05-10T15:43:13;4.72;;;1.58;;
21138;SDS011;10727;43.600;1.444;2023-05-10T15:46:19;4.15;;;1.30;;
21138;SDS011;10727;43.600;1.444;2023-05-10T15:49:25;6.50;;;1.98;;
21138;SDS011;10727;43.600;1.444;2023-05-10T15:52:31;5.30;;;1.75;;
21138;SDS011;10727;43.600;1.444;2023-05-10T15:55:37;6.20;;;1.73;;
21138;SDS011;10727;43.600;1.444;2023-05-10T15:58:42;7.53;;;1.60;;
21138;SDS011;10727;43.600;1.444;2023-05-10T16:01:47;7.65;;;2.00;;
21138;SDS011;10727;43.600;1.444;2023-05-10T16:04:53;5.25;;;1.70;;
21138;SDS011;10727;43.600;1.444;2023-05-10T16:08:01;4.05;;;1.40;;
21138;SDS011;10727;43.600;1.444;2023-05-10T16:11:06;6.82;;;1.90;;
21138;SDS011;10727;43.600;1.444;2023-05-10T16:14:15;3.65;;;1.40;;
21138;SDS011;10727;43.600;1.444;2023-05-10T16:17:20;7.50;;;1.80;;
21138;SDS011;10727;43.600;1.444;2023-05-10T16:20:29;5.22;;;1.30;;
21138;SDS011;10727;43.600;1.444;2023-05-10T16:23:34;5.57;;;1.70;;
21138;SDS011;10727;43.600;1.444;2023-05-10T16:26:39;4.00;;;1.38;;
21138;SDS011;10727;43.600;1.444;2023-05-10T16:29:45;8.38;;;1.95;;
21138;SDS011;10727;43.600;1.444;2023-05-10T16:32:50;8.32;;;1.80;;
21138;SDS011;10727;43.600;1.444;2023-05-10T16:35:57;4.50;;;1.55;;
21138;SDS011;10727;43.600;1.444;2023-05-10T16:39:01;5.57;;;1.75;;
21138;SDS011;10727;43.600;1.444;2023-05-10T16:42:06;8.20;;;2.08;;
21138;SDS011;10727;43.600;1.444;2023-05-10T16:45:12;6.78;;;1.80;;
21138;SDS011;10727;43.600;1.444;2023-05-10T16:48:18;5.13;;;1.73;;
21138;SDS011;10727;43.600;1.444;2023-05-10T16:51:28;5.28;;;1.60;;
21138;SDS011;10727;43.600;1.444;2023-05-10T16:54:35;4.00;;;1.75;;
21138;SDS011;10727;43.600;1.444;2023-05-10T16:57:40;6.35;;;1.85;;
21138;SDS011;10727;43.600;1.444;2023-05-10T17:00:46;6.53;;;1.88;;
21138;SDS011;10727;43.600;1.444;2023-05-10T17:03:51;19.80;;;8.90;;
21138;SDS011;10727;43.600;1.444;2023-05-10T17:06:57;16.00;;;8.52;;
21138;SDS011;10727;43.600;1.444;2023-05-10T17:10:03;46.95;;;26.02;;
21138;SDS011;10727;43.600;1.444;2023-05-10T17:13:11;41.03;;;19.98;;
21138;SDS011;10727;43.600;1.444;2023-05-10T17:16:16;33.42;;;20.83;;
21138;SDS011;10727;43.600;1.444;2023-05-10T17:19:22;6.80;;;2.63;;
21138;SDS011;10727;43.600;1.444;2023-05-10T17:22:29;7.07;;;2.22;;
21138;SDS011;10727;43.600;1.444;2023-05-10T17:25:34;88.55;;;48.88;;
21138;SDS011;10727;43.600;1.444;2023-05-10T17:28:40;110.10;;;64.55;;
21138;SDS011;10727;43.600;1.444;2023-05-10T17:31:45;73.28;;;42.30;;
21138;SDS011;10727;43.600;1.444;2023-05-10T17:34:50;44.75;;;23.23;;
21138;SDS011;10727;43.600;1.444;2023-05-10T17:37:56;28.48;;;15.02;;
21138;SDS011;10727;43.600;1.444;2023-05-10T17:41:04;12.80;;;6.75;;
21138;SDS011;10727;43.600;1.444;2023-05-10T17:44:09;7.55;;;2.38;;
21138;SDS011;10727;43.600;1.444;2023-05-10T17:47:14;10.65;;;2.03;;
21138;SDS011;10727;43.600;1.444;2023-05-10T17:50:20;7.40;;;2.30;;
21138;SDS011;10727;43.600;1.444;2023-05-10T17:53:26;10.10;;;2.00;;
21138;SDS011;10727;43.600;1.444;2023-05-10T17:56:31;71.10;;;42.97;;
21138;SDS011;10727;43.600;1.444;2023-05-10T17:59:37;60.92;;;35.05;;
21138;SDS011;10727;43.600;1.444;2023-05-10T18:02:43;95.05;;;57.22;;
21138;SDS011;10727;43.600;1.444;2023-05-10T18:05:49;30.60;;;20.08;;
21138;SDS011;10727;43.600;1.444;2023-05-10T18:08:55;26.98;;;13.75;;
21138;SDS011;10727;43.600;1.444;2023-05-10T18:12:00;16.17;;;9.38;;
21138;SDS011;10727;43.600;1.444;2023-05-10T18:15:06;10.13;;;3.20;;
21138;SDS011;10727;43.600;1.444;2023-05-10T18:18:11;7.88;;;2.33;;
21138;SDS011;10727;43.600;1.444;2023-05-10T18:21:17;7.85;;;2.10;;
21138;SDS011;10727;43.600;1.444;2023-05-10T18:24:24;6.75;;;1.95;;
21138;SDS011;10727;43.600;1.444;2023-05-10T18:27:30;6.03;;;1.70;;
21138;SDS011;10727;43.600;1.444;2023-05-10T18:30:36;5.20;;;1.70;;
21138;SDS011;10727;43.600;1.444;2023-05-10T18:33:42;3.92;;;1.67;;